Main page
METAR-TAF:

METAR-TAF

Airports :

Ashland Regional Airport

Ashland, Kentucky, United States

latitude: 38-33-16N, longitude: 082-44-17W, elevation: 544 ft

Current weather observation

The report was made 42 minutes ago, at 10:56 UTC
Wind 3 mph from the East/Southeast
Temperature 21°F
Humidity 86%
Pressure 30.26 in. Hg
Visibility: 10 miles
Clear sky

METAR: KDWU 231056Z AUTO 12003KT 10SM CLR M06/M08 A3026 RMK AO2 SLP252 T10611078 FZRANO

Time: 06:38 (11:38 UTC)


TAF: missing

Weather observations and forecasts of more than 4000 airports (METAR and TAF reports).

The available stations are represented by yellow and red dots on the map.

Hover mouse over dot to see the name of the station.

Then click to see weather observations and forecasts.

To change the map : click on the green buttons with a black cross to zoom in, on the green button with a dash to zoom out, or on the green arrows for adjacent maps.


METAR-TAF: